createdAt,value
2018-12-29T00:00:02.222Z,4.61
2018-12-29T00:01:02.005Z,4.61
2018-12-29T00:02:02.185Z,4.59
2018-12-29T00:03:01.966Z,4.6
2018-12-29T00:04:02.008Z,4.6
2018-12-29T00:05:01.745Z,4.6
2018-12-29T00:06:02.123Z,4.62
2018-12-29T00:07:01.989Z,4.61
2018-12-29T00:08:01.799Z,4.6
2018-12-29T00:09:02.215Z,4.61
2018-12-29T00:10:02.137Z,4.61
2018-12-29T00:11:01.900Z,4.6
2018-12-29T00:12:01.706Z,4.61
2018-12-29T00:13:01.869Z,4.61
2018-12-29T00:14:01.795Z,4.63
2018-12-29T00:15:01.985Z,4.62
2018-12-29T00:16:02.241Z,4.61
2018-12-29T00:17:02.550Z,4.63
2018-12-29T00:18:01.748Z,4.62
2018-12-29T00:19:01.793Z,4.63
2018-12-29T00:20:01.921Z,4.62
2018-12-29T00:21:01.749Z,4.63
2018-12-29T00:22:01.740Z,4.63
2018-12-29T00:23:01.925Z,4.62
2018-12-29T00:24:01.695Z,4.63
2018-12-29T00:25:02.121Z,4.6
2018-12-29T00:26:02.094Z,4.61
2018-12-29T00:27:02.206Z,4.59
2018-12-29T00:28:01.729Z,4.61
2018-12-29T00:29:01.827Z,4.62
2018-12-29T00:30:01.874Z,4.62
2018-12-29T00:31:01.826Z,4.6
2018-12-29T00:32:01.714Z,4.59
2018-12-29T00:33:01.829Z,4.58
2018-12-29T00:34:01.718Z,4.61
2018-12-29T00:35:01.757Z,4.58
2018-12-29T00:36:01.775Z,4.56
2018-12-29T00:37:02.310Z,4.59
2018-12-29T00:38:02.166Z,4.59
2018-12-29T00:39:01.675Z,4.6
2018-12-29T00:40:01.760Z,4.59
2018-12-29T00:41:01.800Z,4.6
2018-12-29T00:42:01.717Z,4.57
2018-12-29T00:43:01.693Z,4.58
2018-12-29T00:44:02.021Z,4.59
2018-12-29T00:45:03.281Z,4.6
2018-12-29T00:46:01.795Z,4.59
2018-12-29T00:47:01.757Z,4.58
2018-12-29T00:48:01.671Z,4.58
2018-12-29T00:49:01.934Z,4.59
2018-12-29T00:50:01.721Z,4.6
2018-12-29T00:51:01.773Z,4.6
2018-12-29T00:52:01.674Z,4.61
2018-12-29T00:53:01.759Z,4.61
2018-12-29T00:54:01.667Z,4.62
2018-12-29T00:55:02.143Z,4.61
2018-12-29T00:56:01.617Z,4.61
2018-12-29T00:57:01.892Z,4.62
2018-12-29T00:58:01.658Z,4.61
2018-12-29T00:59:01.742Z,4.6
2018-12-29T01:00:02.197Z,4.61
2018-12-29T01:01:01.536Z,4.61
2018-12-29T01:02:02.715Z,4.59
2018-12-29T01:03:01.735Z,4.6
2018-12-29T01:04:01.813Z,4.6
2018-12-29T01:05:01.942Z,4.59
2018-12-29T01:06:01.875Z,4.6
2018-12-29T01:07:02.290Z,4.6
2018-12-29T01:08:02.337Z,4.6
2018-12-29T01:09:02.976Z,4.59
2018-12-29T01:10:02.091Z,4.6
2018-12-29T01:11:01.754Z,4.58
2018-12-29T01:12:01.900Z,4.59
2018-12-29T01:13:01.707Z,4.57
2018-12-29T01:14:01.722Z,4.58
2018-12-29T01:15:01.995Z,4.57
2018-12-29T01:16:01.999Z,4.57
2018-12-29T01:17:01.782Z,4.59
2018-12-29T01:18:01.795Z,4.59
2018-12-29T01:19:01.775Z,4.59
2018-12-29T01:20:01.972Z,4.58
2018-12-29T01:21:01.637Z,4.59
2018-12-29T01:22:01.737Z,4.58
2018-12-29T01:23:01.677Z,4.58
2018-12-29T01:24:01.874Z,4.58
2018-12-29T01:25:02.333Z,4.58
2018-12-29T01:26:01.975Z,4.59
2018-12-29T01:27:01.872Z,4.58
2018-12-29T01:28:01.915Z,4.59
2018-12-29T01:29:01.856Z,4.59
2018-12-29T01:30:02.446Z,4.58
2018-12-29T01:31:01.625Z,4.59
2018-12-29T01:32:01.893Z,4.6
2018-12-29T01:33:01.659Z,4.59
2018-12-29T01:34:01.888Z,4.58
2018-12-29T01:35:02.825Z,4.59
2018-12-29T01:36:01.627Z,4.58
2018-12-29T01:37:02.175Z,4.58
2018-12-29T01:38:02.142Z,4.58
2018-12-29T01:39:01.952Z,4.59
2018-12-29T01:40:02.084Z,4.6
2018-12-29T01:41:01.643Z,4.58
2018-12-29T01:42:02.236Z,4.58
2018-12-29T01:43:01.888Z,4.58
2018-12-29T01:44:01.634Z,4.58
2018-12-29T01:45:01.638Z,4.57
2018-12-29T01:46:01.715Z,4.57
2018-12-29T01:47:01.716Z,4.57
2018-12-29T01:48:01.833Z,4.58
2018-12-29T01:49:01.955Z,4.59
2018-12-29T01:50:02.447Z,4.55
2018-12-29T01:51:01.646Z,4.52
2018-12-29T01:52:01.894Z,4.53
2018-12-29T01:53:02.053Z,4.54
2018-12-29T01:54:01.813Z,4.52
2018-12-29T01:55:01.814Z,4.54
2018-12-29T01:56:01.970Z,4.54
2018-12-29T01:57:01.942Z,4.54
2018-12-29T01:58:01.654Z,4.55
2018-12-29T01:59:01.601Z,4.55
2018-12-29T02:00:01.627Z,4.55
2018-12-29T02:01:01.668Z,4.55
2018-12-29T02:02:02.801Z,4.54
2018-12-29T02:03:01.602Z,4.55
2018-12-29T02:04:01.631Z,4.54
2018-12-29T02:05:01.974Z,4.55
2018-12-29T02:06:01.759Z,4.55
2018-12-29T02:07:01.591Z,4.54
2018-12-29T02:08:01.692Z,4.54
2018-12-29T02:09:01.834Z,4.53
2018-12-29T02:10:01.616Z,4.53
2018-12-29T02:11:01.710Z,4.51
2018-12-29T02:12:01.839Z,4.51
2018-12-29T02:13:01.693Z,4.52
2018-12-29T02:14:01.730Z,4.54
2018-12-29T02:15:01.790Z,4.53
2018-12-29T02:16:02.055Z,4.52
2018-12-29T02:17:01.707Z,4.53
2018-12-29T02:18:01.694Z,4.52
2018-12-29T02:19:01.551Z,4.52
2018-12-29T02:20:01.944Z,4.51
2018-12-29T02:21:01.595Z,4.51
2018-12-29T02:22:01.727Z,4.51
2018-12-29T02:23:01.633Z,4.5
2018-12-29T02:24:01.537Z,4.5
2018-12-29T02:25:01.631Z,4.51
2018-12-29T02:26:01.722Z,4.5
2018-12-29T02:27:01.612Z,4.5
2018-12-29T02:28:01.781Z,4.49
2018-12-29T02:29:01.555Z,4.5
2018-12-29T02:30:01.805Z,4.5
2018-12-29T02:31:02.166Z,4.5
2018-12-29T02:32:01.814Z,4.49
2018-12-29T02:33:01.634Z,4.5
2018-12-29T02:34:01.945Z,4.51
2018-12-29T02:35:01.679Z,4.52
2018-12-29T02:36:01.654Z,4.53
2018-12-29T02:37:01.632Z,4.53
2018-12-29T02:38:01.549Z,4.52
2018-12-29T02:39:02.113Z,4.52
2018-12-29T02:40:01.693Z,4.52
2018-12-29T02:41:02.096Z,4.52
2018-12-29T02:42:01.806Z,4.51
2018-12-29T02:43:01.718Z,4.52
2018-12-29T02:44:01.824Z,4.51
2018-12-29T02:45:01.582Z,4.52
2018-12-29T02:46:01.832Z,4.52
2018-12-29T02:47:01.852Z,4.51
2018-12-29T02:48:02.073Z,4.51
2018-12-29T02:49:01.931Z,4.52
2018-12-29T02:50:01.687Z,4.52
2018-12-29T02:51:01.481Z,4.53
2018-12-29T02:52:01.892Z,4.53
2018-12-29T02:53:01.715Z,4.51
2018-12-29T02:54:01.608Z,4.53
2018-12-29T02:55:01.885Z,4.53
2018-12-29T02:56:01.812Z,4.53
2018-12-29T02:57:01.803Z,4.53
2018-12-29T02:58:01.618Z,4.51
2018-12-29T02:59:01.816Z,4.51
2018-12-29T03:00:01.531Z,4.53
2018-12-29T03:01:01.813Z,4.53
2018-12-29T03:02:01.550Z,4.51
2018-12-29T03:03:01.567Z,4.54
2018-12-29T03:04:02.075Z,4.53
2018-12-29T03:05:01.743Z,4.53
2018-12-29T03:06:01.647Z,4.53
2018-12-29T03:07:02.046Z,4.54
2018-12-29T03:08:01.698Z,4.54
2018-12-29T03:09:01.498Z,4.55
2018-12-29T03:10:01.918Z,4.54
2018-12-29T03:11:02.013Z,4.54
2018-12-29T03:12:02.105Z,4.54
2018-12-29T03:13:01.629Z,4.54
2018-12-29T03:14:01.905Z,4.53
2018-12-29T03:15:01.607Z,4.53
2018-12-29T03:16:02.099Z,4.53
2018-12-29T03:17:01.713Z,4.53
2018-12-29T03:18:01.697Z,4.53
2018-12-29T03:19:01.776Z,4.54
2018-12-29T03:20:02.295Z,4.55
2018-12-29T03:21:01.582Z,4.55
2018-12-29T03:22:01.760Z,4.54
2018-12-29T03:23:01.715Z,4.54
2018-12-29T03:24:01.587Z,4.56
2018-12-29T03:25:01.582Z,4.55
2018-12-29T03:26:01.522Z,4.55
2018-12-29T03:27:01.611Z,4.55
2018-12-29T03:28:01.671Z,4.54
2018-12-29T03:29:01.646Z,4.56
2018-12-29T03:30:01.604Z,4.56
2018-12-29T03:31:01.651Z,4.57
2018-12-29T03:32:01.600Z,4.57
2018-12-29T03:33:01.677Z,4.57
2018-12-29T03:34:01.671Z,4.56
2018-12-29T03:35:02.294Z,4.57
2018-12-29T03:36:01.762Z,4.57
2018-12-29T03:37:01.458Z,4.56
2018-12-29T03:38:01.466Z,4.56
2018-12-29T03:39:01.472Z,4.58
2018-12-29T03:40:01.649Z,4.57
2018-12-29T03:41:01.917Z,4.57
2018-12-29T03:42:01.701Z,4.58
2018-12-29T03:43:01.534Z,4.56
2018-12-29T03:44:01.441Z,4.54
2018-12-29T03:45:01.823Z,4.55
2018-12-29T03:46:01.451Z,4.56
2018-12-29T03:47:01.563Z,4.56
2018-12-29T03:48:01.689Z,4.57
2018-12-29T03:49:01.475Z,4.58
2018-12-29T03:50:01.439Z,4.57
2018-12-29T03:51:01.900Z,4.57
2018-12-29T03:52:01.755Z,4.57
2018-12-29T03:53:02.296Z,4.57
2018-12-29T03:54:01.439Z,4.57
2018-12-29T03:55:01.781Z,4.57
2018-12-29T03:56:01.560Z,4.57
2018-12-29T03:57:01.382Z,4.58
2018-12-29T03:58:01.421Z,4.58
2018-12-29T03:59:01.496Z,4.59
2018-12-29T04:00:01.749Z,4.59
2018-12-29T04:01:01.578Z,4.58
2018-12-29T04:02:01.536Z,4.58
2018-12-29T04:03:01.438Z,4.57
2018-12-29T04:04:01.403Z,4.57
2018-12-29T04:05:01.710Z,4.57
2018-12-29T04:06:01.446Z,4.57
2018-12-29T04:07:01.397Z,4.57
2018-12-29T04:08:01.446Z,4.57
2018-12-29T04:09:01.512Z,4.56
2018-12-29T04:10:01.842Z,4.57
2018-12-29T04:11:01.451Z,4.57
2018-12-29T04:12:01.591Z,4.57
2018-12-29T04:13:01.510Z,4.56
2018-12-29T04:14:01.416Z,4.57
2018-12-29T04:15:01.486Z,4.57
2018-12-29T04:16:01.520Z,4.57
2018-12-29T04:17:01.445Z,4.57
2018-12-29T04:18:01.494Z,4.56
2018-12-29T04:19:02.269Z,4.57
2018-12-29T04:20:01.672Z,4.57
2018-12-29T04:21:01.701Z,4.57
2018-12-29T04:22:01.448Z,4.57
2018-12-29T04:23:01.418Z,4.56
2018-12-29T04:24:02.227Z,4.57
2018-12-29T04:25:01.683Z,4.57
2018-12-29T04:26:01.430Z,4.57
2018-12-29T04:27:01.597Z,4.57
2018-12-29T04:28:02.198Z,4.58
2018-12-29T04:29:01.543Z,4.56
2018-12-29T04:30:01.486Z,4.58
2018-12-29T04:31:01.613Z,4.58
2018-12-29T04:32:01.552Z,4.58
2018-12-29T04:33:01.777Z,4.59
2018-12-29T04:34:01.819Z,4.59
2018-12-29T04:35:01.914Z,4.58
2018-12-29T04:36:01.571Z,4.59
2018-12-29T04:37:01.687Z,4.58
2018-12-29T04:38:01.384Z,4.58
2018-12-29T04:39:01.354Z,4.58
2018-12-29T04:40:01.567Z,4.59
2018-12-29T04:41:01.700Z,4.58
2018-12-29T04:42:01.399Z,4.58
2018-12-29T04:43:01.535Z,4.6
2018-12-29T04:44:01.522Z,4.58
2018-12-29T04:45:01.672Z,4.56
2018-12-29T04:46:05.773Z,4.58
2018-12-29T04:47:01.619Z,4.57
2018-12-29T04:48:01.353Z,4.6
2018-12-29T04:49:01.508Z,4.59
2018-12-29T04:50:01.679Z,4.58
2018-12-29T04:51:01.372Z,4.58
2018-12-29T04:52:01.607Z,4.58
2018-12-29T04:53:01.347Z,4.6
2018-12-29T04:54:01.454Z,4.6
2018-12-29T04:55:01.708Z,4.6
2018-12-29T04:56:01.478Z,4.6
2018-12-29T04:57:01.708Z,4.59
2018-12-29T04:58:01.571Z,4.59
2018-12-29T04:59:01.641Z,4.59
2018-12-29T05:00:01.558Z,4.57
2018-12-29T05:01:01.476Z,4.6
2018-12-29T05:02:01.334Z,4.58
2018-12-29T05:03:02.146Z,4.6
2018-12-29T05:04:01.505Z,4.59
2018-12-29T05:05:01.404Z,4.6
2018-12-29T05:06:01.347Z,4.59
2018-12-29T05:07:01.436Z,4.58
2018-12-29T05:08:01.527Z,4.58
2018-12-29T05:09:01.404Z,4.59
2018-12-29T05:10:01.784Z,4.61
2018-12-29T05:11:01.384Z,4.59
2018-12-29T05:12:01.560Z,4.6
2018-12-29T05:13:01.616Z,4.63
2018-12-29T05:14:01.471Z,4.63
2018-12-29T05:15:01.536Z,4.6
2018-12-29T05:16:01.372Z,4.63
2018-12-29T05:17:01.525Z,4.62
2018-12-29T05:18:01.634Z,4.62
2018-12-29T05:19:01.613Z,4.61
2018-12-29T05:20:01.307Z,4.62
2018-12-29T05:21:01.486Z,4.61
2018-12-29T05:22:01.354Z,4.63
2018-12-29T05:23:01.404Z,4.62
2018-12-29T05:24:01.484Z,4.63
2018-12-29T05:25:01.690Z,4.61
2018-12-29T05:26:01.453Z,4.59
2018-12-29T05:27:01.871Z,4.59
2018-12-29T05:28:01.760Z,4.59
2018-12-29T05:29:01.509Z,4.59
2018-12-29T05:30:01.315Z,4.59
2018-12-29T05:31:01.710Z,4.62
2018-12-29T05:32:01.324Z,4.62
2018-12-29T05:33:01.589Z,4.63
2018-12-29T05:34:01.366Z,4.63
2018-12-29T05:35:01.264Z,4.6
2018-12-29T05:36:01.295Z,4.6
2018-12-29T05:37:01.318Z,4.6
2018-12-29T05:38:01.573Z,4.6
2018-12-29T05:39:01.576Z,4.61
2018-12-29T05:40:01.353Z,4.62
2018-12-29T05:41:01.362Z,4.63
2018-12-29T05:42:01.359Z,4.63
2018-12-29T05:43:01.281Z,4.64
2018-12-29T05:44:01.328Z,4.64
2018-12-29T05:45:01.299Z,4.64
2018-12-29T05:46:01.324Z,4.63
2018-12-29T05:47:01.335Z,4.62
2018-12-29T05:48:01.337Z,4.63
2018-12-29T05:49:01.310Z,4.63
2018-12-29T05:50:01.430Z,4.6
2018-12-29T05:51:01.331Z,4.63
2018-12-29T05:52:01.260Z,4.63
2018-12-29T05:53:01.313Z,4.64
2018-12-29T05:54:01.333Z,4.63
2018-12-29T05:55:01.447Z,4.63
2018-12-29T05:56:01.228Z,4.64
2018-12-29T05:57:01.282Z,4.64
2018-12-29T05:58:01.316Z,4.63
2018-12-29T05:59:01.542Z,4.62
2018-12-29T06:00:01.716Z,4.63
2018-12-29T06:01:02.066Z,4.63
2018-12-29T06:02:01.286Z,4.63
2018-12-29T06:03:01.536Z,4.62
2018-12-29T06:04:01.547Z,4.61
2018-12-29T06:05:01.551Z,4.62
2018-12-29T06:06:01.267Z,4.62
2018-12-29T06:07:01.271Z,4.63
2018-12-29T06:08:01.469Z,4.62
2018-12-29T06:09:01.321Z,4.62
2018-12-29T06:10:01.446Z,4.61
2018-12-29T06:11:01.598Z,4.61
2018-12-29T06:12:01.665Z,4.61
2018-12-29T06:13:01.246Z,4.61
2018-12-29T06:14:01.459Z,4.61
2018-12-29T06:15:01.402Z,4.61
2018-12-29T06:16:01.693Z,4.61
2018-12-29T06:17:01.328Z,4.61
2018-12-29T06:18:01.587Z,4.61
2018-12-29T06:19:01.549Z,4.62
2018-12-29T06:20:01.776Z,4.62
2018-12-29T06:21:01.532Z,4.61
2018-12-29T06:22:01.637Z,4.62
2018-12-29T06:23:01.660Z,4.63
2018-12-29T06:24:01.253Z,4.65
2018-12-29T06:25:01.609Z,4.65
2018-12-29T06:26:01.430Z,4.63
2018-12-29T06:27:01.646Z,4.64
2018-12-29T06:28:01.238Z,4.64
2018-12-29T06:29:01.586Z,4.64
2018-12-29T06:30:01.502Z,4.63
2018-12-29T06:31:01.278Z,4.63
2018-12-29T06:32:01.384Z,4.64
2018-12-29T06:33:01.219Z,4.62
2018-12-29T06:34:01.871Z,4.63
2018-12-29T06:35:01.394Z,4.63
2018-12-29T06:36:01.211Z,4.63
2018-12-29T06:37:01.419Z,4.64
2018-12-29T06:38:01.254Z,4.63
2018-12-29T06:39:01.473Z,4.63
2018-12-29T06:40:01.198Z,4.63
2018-12-29T06:41:01.232Z,4.63
2018-12-29T06:42:01.216Z,4.64
2018-12-29T06:43:01.666Z,4.64
2018-12-29T06:44:01.249Z,4.64
2018-12-29T06:45:01.493Z,4.63
2018-12-29T06:46:01.315Z,4.64
2018-12-29T06:47:01.230Z,4.63
2018-12-29T06:48:01.804Z,4.64
2018-12-29T06:49:01.752Z,4.63
2018-12-29T06:50:01.325Z,4.63
2018-12-29T06:51:01.559Z,4.64
2018-12-29T06:52:01.283Z,4.63
2018-12-29T06:53:01.349Z,4.64
2018-12-29T06:54:01.241Z,4.64
2018-12-29T06:55:01.508Z,4.63
2018-12-29T06:56:01.368Z,4.62
2018-12-29T06:57:01.332Z,4.63
2018-12-29T06:58:01.487Z,4.61
2018-12-29T06:59:01.954Z,4.62
2018-12-29T07:00:01.198Z,4.62
2018-12-29T07:01:01.471Z,4.63
2018-12-29T07:02:01.501Z,4.63
2018-12-29T07:03:01.588Z,4.62
2018-12-29T07:04:01.374Z,4.62
2018-12-29T07:05:01.334Z,4.63
2018-12-29T07:06:02.006Z,4.62
2018-12-29T07:07:01.466Z,4.61
2018-12-29T07:08:01.178Z,4.62
2018-12-29T07:09:01.550Z,4.62
2018-12-29T07:10:01.192Z,4.63
2018-12-29T07:11:01.461Z,4.63
2018-12-29T07:12:01.530Z,4.63
2018-12-29T07:13:01.526Z,4.63
2018-12-29T07:14:01.341Z,4.64
2018-12-29T07:15:01.284Z,4.65
2018-12-29T07:16:01.236Z,4.65
2018-12-29T07:17:01.179Z,4.66
2018-12-29T07:18:01.289Z,4.65
2018-12-29T07:19:01.266Z,4.65
2018-12-29T07:20:01.319Z,4.65
2018-12-29T07:21:01.239Z,4.65
2018-12-29T07:22:01.135Z,4.65
2018-12-29T07:23:01.431Z,4.65
2018-12-29T07:24:01.144Z,4.66
2018-12-29T07:25:01.163Z,4.65
2018-12-29T07:26:01.274Z,4.65
2018-12-29T07:27:01.168Z,4.66
2018-12-29T07:28:01.124Z,4.66
2018-12-29T07:29:01.358Z,4.66
2018-12-29T07:30:01.148Z,4.66
2018-12-29T07:31:01.227Z,4.65
2018-12-29T07:32:01.458Z,4.66
2018-12-29T07:33:01.369Z,4.64
2018-12-29T07:34:01.390Z,4.64
2018-12-29T07:35:01.132Z,4.64
2018-12-29T07:36:01.201Z,4.65
2018-12-29T07:37:01.276Z,4.65
2018-12-29T07:38:01.155Z,4.65
2018-12-29T07:39:01.473Z,4.64
2018-12-29T07:40:01.425Z,4.64
2018-12-29T07:41:01.267Z,4.65
2018-12-29T07:42:01.171Z,4.65
2018-12-29T07:43:01.999Z,4.65
2018-12-29T07:44:01.938Z,4.65
2018-12-29T07:45:01.175Z,4.65
2018-12-29T07:46:01.243Z,4.64
2018-12-29T07:47:01.717Z,4.65
2018-12-29T07:48:01.099Z,4.65
2018-12-29T07:49:01.923Z,4.63
2018-12-29T07:50:01.262Z,4.64
2018-12-29T07:51:01.137Z,4.65
2018-12-29T07:52:01.404Z,4.65
2018-12-29T07:53:01.311Z,4.66
2018-12-29T07:54:01.254Z,4.66
2018-12-29T07:55:01.249Z,4.66
2018-12-29T07:56:01.200Z,4.65
2018-12-29T07:57:01.167Z,4.66
2018-12-29T07:58:01.171Z,4.66
2018-12-29T07:59:00.898Z,4.67
2018-12-29T08:00:01.366Z,4.67
2018-12-29T08:01:01.225Z,4.68
2018-12-29T08:02:01.403Z,4.67
2018-12-29T08:03:01.548Z,4.67
2018-12-29T08:04:01.146Z,4.67
2018-12-29T08:05:01.441Z,4.67
2018-12-29T08:06:01.136Z,4.67
2018-12-29T08:07:01.296Z,4.68
2018-12-29T08:08:01.111Z,4.69
2018-12-29T08:09:01.130Z,4.67
2018-12-29T08:10:01.375Z,4.69
2018-12-29T08:11:01.184Z,4.68
2018-12-29T08:12:01.606Z,4.69
2018-12-29T08:13:01.598Z,4.69
2018-12-29T08:14:01.494Z,4.7
2018-12-29T08:15:01.417Z,4.7
2018-12-29T08:16:01.364Z,4.7
2018-12-29T08:17:01.351Z,4.7
2018-12-29T08:18:01.329Z,4.69
2018-12-29T08:19:01.083Z,4.7
2018-12-29T08:20:01.680Z,4.7
2018-12-29T08:21:01.973Z,4.69
2018-12-29T08:22:01.169Z,4.7
2018-12-29T08:23:01.161Z,4.68
2018-12-29T08:24:01.311Z,4.69
2018-12-29T08:25:01.285Z,4.7
2018-12-29T08:26:01.081Z,4.7
2018-12-29T08:27:01.611Z,4.7
2018-12-29T08:28:01.358Z,4.71
2018-12-29T08:29:01.267Z,4.71
2018-12-29T08:30:01.209Z,4.72
2018-12-29T08:31:01.368Z,4.72
2018-12-29T08:32:01.259Z,4.71
2018-12-29T08:33:01.290Z,4.71
2018-12-29T08:34:01.470Z,4.72
2018-12-29T08:35:01.386Z,4.72
2018-12-29T08:36:01.664Z,4.74
2018-12-29T08:37:01.048Z,4.74
2018-12-29T08:38:01.440Z,4.74
2018-12-29T08:39:01.568Z,4.73
2018-12-29T08:40:01.060Z,4.72
2018-12-29T08:41:01.165Z,4.72
2018-12-29T08:42:01.142Z,4.73
2018-12-29T08:43:01.098Z,4.74
2018-12-29T08:44:01.329Z,4.75
2018-12-29T08:45:01.220Z,4.75
2018-12-29T08:46:01.159Z,4.74
2018-12-29T08:47:05.130Z,4.74
2018-12-29T08:48:01.457Z,4.74
2018-12-29T08:49:01.102Z,4.75
2018-12-29T08:50:01.187Z,4.75
2018-12-29T08:51:01.502Z,4.75
2018-12-29T08:52:01.367Z,4.75
2018-12-29T08:53:01.085Z,4.75
2018-12-29T08:54:01.090Z,4.76
2018-12-29T08:55:01.152Z,4.76
2018-12-29T08:56:01.294Z,4.77
2018-12-29T08:57:01.116Z,4.76
2018-12-29T08:58:01.033Z,4.76
2018-12-29T08:59:01.155Z,4.76
2018-12-29T09:00:01.232Z,4.77
2018-12-29T09:01:00.993Z,4.77
2018-12-29T09:02:01.400Z,4.78
2018-12-29T09:03:01.229Z,4.77
2018-12-29T09:04:01.100Z,4.77
2018-12-29T09:05:01.203Z,4.78
2018-12-29T09:06:01.149Z,4.76
2018-12-29T09:07:01.081Z,4.77
2018-12-29T09:08:01.120Z,4.76
2018-12-29T09:09:00.976Z,4.77
2018-12-29T09:10:01.207Z,4.79
2018-12-29T09:11:00.976Z,4.78
2018-12-29T09:12:01.267Z,4.78
2018-12-29T09:13:01.351Z,4.78
2018-12-29T09:14:01.482Z,4.77
2018-12-29T09:15:01.667Z,4.78
2018-12-29T09:16:01.445Z,4.79
2018-12-29T09:17:01.169Z,4.79
2018-12-29T09:18:01.588Z,4.8
2018-12-29T09:19:01.189Z,4.79
2018-12-29T09:20:01.811Z,4.8
2018-12-29T09:21:01.235Z,4.81
2018-12-29T09:22:01.189Z,4.81
2018-12-29T09:23:01.631Z,4.81
2018-12-29T09:24:01.187Z,4.83
2018-12-29T09:25:01.146Z,4.84
2018-12-29T09:26:01.022Z,4.84
2018-12-29T09:27:01.098Z,4.86
2018-12-29T09:28:01.216Z,4.88
2018-12-29T09:29:01.416Z,4.88
2018-12-29T09:30:01.250Z,4.88
2018-12-29T09:31:01.187Z,4.88
2018-12-29T09:32:01.180Z,4.89
2018-12-29T09:33:01.813Z,4.88
2018-12-29T09:34:01.282Z,4.91
2018-12-29T09:35:01.356Z,4.9
2018-12-29T09:36:01.217Z,4.91
2018-12-29T09:37:01.170Z,4.9
2018-12-29T09:38:00.931Z,4.87
2018-12-29T09:39:01.013Z,4.86
2018-12-29T09:40:01.788Z,4.88
2018-12-29T09:41:01.340Z,4.88
2018-12-29T09:42:01.200Z,4.89
2018-12-29T09:43:01.140Z,4.91
2018-12-29T09:44:01.760Z,4.91
2018-12-29T09:45:01.270Z,4.89
2018-12-29T09:46:01.334Z,4.89
2018-12-29T09:47:01.122Z,4.89
2018-12-29T09:48:01.090Z,4.87
2018-12-29T09:49:02.008Z,4.89
2018-12-29T09:50:00.969Z,4.9
2018-12-29T09:51:01.057Z,4.9
2018-12-29T09:52:01.631Z,4.89
2018-12-29T09:53:04.183Z,4.9
2018-12-29T09:54:01.016Z,4.9
2018-12-29T09:55:01.005Z,4.91
2018-12-29T09:56:01.201Z,4.91
2018-12-29T09:57:01.236Z,4.9
2018-12-29T09:58:01.158Z,4.9
2018-12-29T09:59:00.932Z,4.93
2018-12-29T10:00:01.153Z,4.92
2018-12-29T10:01:01.295Z,4.91
2018-12-29T10:02:01.266Z,4.9
2018-12-29T10:03:01.354Z,4.92
2018-12-29T10:04:01.022Z,4.92
2018-12-29T10:05:01.757Z,4.91
2018-12-29T10:06:01.208Z,4.92
2018-12-29T10:07:01.236Z,4.91
2018-12-29T10:08:01.171Z,4.91
2018-12-29T10:09:01.126Z,4.92
2018-12-29T10:10:01.110Z,4.9
2018-12-29T10:11:01.259Z,4.9
2018-12-29T10:12:01.266Z,4.9
2018-12-29T10:13:00.977Z,4.9
2018-12-29T10:14:00.957Z,4.89
2018-12-29T10:15:01.051Z,4.89
2018-12-29T10:16:01.172Z,4.89
2018-12-29T10:17:01.746Z,4.89
2018-12-29T10:18:01.086Z,4.89
2018-12-29T10:19:01.243Z,4.9
2018-12-29T10:20:01.168Z,4.91
2018-12-29T10:21:01.040Z,4.91
2018-12-29T10:22:01.610Z,4.91
2018-12-29T10:23:01.238Z,4.91
2018-12-29T10:24:01.809Z,4.9
2018-12-29T10:25:01.470Z,4.89
2018-12-29T10:26:00.883Z,4.91
2018-12-29T10:27:01.168Z,4.92
2018-12-29T10:28:01.329Z,4.92
2018-12-29T10:29:01.202Z,4.92
2018-12-29T10:30:00.979Z,4.92
2018-12-29T10:31:02.188Z,4.93
2018-12-29T10:32:01.116Z,4.92
2018-12-29T10:33:01.197Z,4.93
2018-12-29T10:34:01.293Z,4.93
2018-12-29T10:35:00.849Z,4.94
2018-12-29T10:36:01.706Z,4.93
2018-12-29T10:37:00.986Z,4.93
2018-12-29T10:38:01.021Z,4.93
2018-12-29T10:39:01.308Z,4.95
2018-12-29T10:40:00.920Z,4.95
2018-12-29T10:41:01.355Z,4.96
2018-12-29T10:42:01.055Z,4.95
2018-12-29T10:43:00.921Z,4.93
2018-12-29T10:44:01.118Z,4.94
2018-12-29T10:45:01.453Z,4.95
2018-12-29T10:46:01.216Z,4.94
2018-12-29T10:47:01.070Z,4.96
2018-12-29T10:48:01.594Z,4.95
2018-12-29T10:49:01.281Z,4.95
2018-12-29T10:50:02.248Z,4.95
2018-12-29T10:51:00.878Z,4.95
2018-12-29T10:52:03.564Z,4.96
2018-12-29T10:53:01.249Z,4.98
2018-12-29T10:54:01.622Z,4.98
2018-12-29T10:55:00.860Z,4.96
2018-12-29T10:56:00.913Z,4.96
2018-12-29T10:57:01.228Z,4.96
2018-12-29T10:58:01.477Z,4.96
2018-12-29T10:59:01.074Z,4.96
2018-12-29T11:00:01.752Z,4.96
2018-12-29T11:01:01.103Z,4.97
2018-12-29T11:02:06.612Z,4.97
2018-12-29T11:03:01.114Z,4.96
2018-12-29T11:04:00.786Z,4.97
2018-12-29T11:05:00.968Z,4.96
2018-12-29T11:06:01.894Z,4.97
2018-12-29T11:07:00.901Z,4.97
2018-12-29T11:08:01.394Z,4.96
2018-12-29T11:09:01.013Z,4.95
2018-12-29T11:10:00.934Z,4.95
2018-12-29T11:11:01.109Z,4.96
2018-12-29T11:12:01.079Z,4.95
2018-12-29T11:13:01.149Z,4.95
2018-12-29T11:14:01.636Z,4.95
2018-12-29T11:15:00.997Z,4.94
2018-12-29T11:16:01.117Z,4.95
2018-12-29T11:17:04.358Z,4.95
2018-12-29T11:18:01.243Z,4.94
2018-12-29T11:19:02.017Z,4.95
2018-12-29T11:20:01.187Z,4.96
2018-12-29T11:21:02.786Z,4.95
2018-12-29T11:22:01.707Z,4.93
2018-12-29T11:23:01.637Z,4.95
2018-12-29T11:24:01.015Z,4.94
2018-12-29T11:25:01.265Z,4.94
2018-12-29T11:26:01.743Z,4.93
2018-12-29T11:27:01.184Z,4.89
2018-12-29T11:28:00.988Z,4.91
2018-12-29T11:29:00.847Z,4.94
2018-12-29T11:30:01.110Z,4.96
2018-12-29T11:31:01.332Z,4.95
2018-12-29T11:32:01.136Z,4.93
2018-12-29T11:33:01.181Z,4.93
2018-12-29T11:34:01.125Z,4.92
2018-12-29T11:35:00.918Z,4.93
2018-12-29T11:36:01.171Z,4.91
2018-12-29T11:37:01.201Z,4.92
2018-12-29T11:38:00.934Z,4.94
2018-12-29T11:39:01.170Z,4.94
2018-12-29T11:40:01.060Z,4.94
2018-12-29T11:41:01.055Z,4.94
2018-12-29T11:42:00.757Z,4.93
2018-12-29T11:43:01.003Z,4.91
2018-12-29T11:44:00.820Z,4.94
2018-12-29T11:45:01.079Z,4.94
2018-12-29T11:46:00.818Z,4.95
2018-12-29T11:47:00.806Z,4.95
2018-12-29T11:48:01.103Z,4.93
2018-12-29T11:49:02.305Z,4.93
2018-12-29T11:50:01.407Z,4.95
2018-12-29T11:51:02.462Z,4.96
2018-12-29T11:52:01.228Z,4.97
2018-12-29T11:53:00.820Z,4.96
2018-12-29T11:54:00.843Z,4.97
2018-12-29T11:55:01.425Z,4.96
2018-12-29T11:56:01.165Z,4.94
2018-12-29T11:57:00.976Z,4.95
2018-12-29T11:58:01.039Z,4.94
2018-12-29T11:59:01.216Z,4.95
2018-12-29T12:00:02.382Z,4.96
2018-12-29T12:01:00.878Z,4.97
2018-12-29T12:02:01.190Z,4.97
2018-12-29T12:03:00.869Z,4.96
2018-12-29T12:04:00.994Z,4.96
2018-12-29T12:05:01.008Z,4.98
2018-12-29T12:06:00.824Z,4.98
2018-12-29T12:07:00.921Z,4.97
2018-12-29T12:08:00.887Z,4.98
2018-12-29T12:09:02.154Z,4.98
2018-12-29T12:10:00.816Z,5
2018-12-29T12:11:00.832Z,4.96
2018-12-29T12:12:00.846Z,4.96
2018-12-29T12:13:01.638Z,4.95
2018-12-29T12:14:00.819Z,4.94
2018-12-29T12:15:01.255Z,4.94
2018-12-29T12:16:00.867Z,4.93
2018-12-29T12:17:01.614Z,4.94
2018-12-29T12:18:02.282Z,4.94
2018-12-29T12:19:00.840Z,4.94
2018-12-29T12:20:01.370Z,4.95
2018-12-29T12:21:01.148Z,4.96
2018-12-29T12:22:00.959Z,4.98
2018-12-29T12:23:01.010Z,4.98
2018-12-29T12:24:01.482Z,4.98
2018-12-29T12:25:00.993Z,4.99
2018-12-29T12:26:01.173Z,5
2018-12-29T12:27:00.988Z,5
2018-12-29T12:28:01.627Z,5.01
2018-12-29T12:29:02.873Z,5.01
2018-12-29T12:30:01.209Z,4.98
2018-12-29T12:31:01.282Z,4.96
2018-12-29T12:32:00.777Z,4.98
2018-12-29T12:33:01.490Z,4.98
2018-12-29T12:34:02.184Z,4.99
2018-12-29T12:35:00.912Z,5
2018-12-29T12:36:01.063Z,5.01
2018-12-29T12:37:01.057Z,5
2018-12-29T12:38:00.872Z,5.02
2018-12-29T12:39:03.106Z,5.03
2018-12-29T12:40:01.052Z,5
2018-12-29T12:41:00.873Z,4.99
2018-12-29T12:42:00.816Z,5
2018-12-29T12:43:00.758Z,5.01
2018-12-29T12:44:01.161Z,5.01
2018-12-29T12:45:00.964Z,5
2018-12-29T12:46:00.990Z,5.01
2018-12-29T12:47:00.962Z,5
2018-12-29T12:48:05.654Z,4.98
2018-12-29T12:49:00.954Z,4.97
2018-12-29T12:50:02.067Z,4.97
2018-12-29T12:51:01.220Z,4.98
2018-12-29T12:52:00.966Z,4.97
2018-12-29T12:53:00.967Z,4.96
2018-12-29T12:54:00.951Z,4.96
2018-12-29T12:55:00.801Z,4.97
2018-12-29T12:56:01.458Z,4.95
2018-12-29T12:57:02.847Z,4.95
2018-12-29T12:58:02.392Z,4.95
2018-12-29T12:59:01.004Z,4.96
2018-12-29T13:00:02.498Z,4.96
2018-12-29T13:01:02.310Z,4.96
2018-12-29T13:02:01.839Z,4.96
2018-12-29T13:03:00.985Z,4.97
2018-12-29T13:04:01.151Z,4.96
2018-12-29T13:05:01.130Z,4.97
2018-12-29T13:06:01.194Z,4.98
2018-12-29T13:07:00.776Z,4.98
2018-12-29T13:08:00.760Z,4.99
2018-12-29T13:09:01.207Z,4.98
2018-12-29T13:10:00.894Z,4.99
2018-12-29T13:11:00.923Z,4.99
2018-12-29T13:12:00.956Z,4.97
2018-12-29T13:13:00.689Z,4.96
2018-12-29T13:14:00.739Z,4.96
2018-12-29T13:15:01.065Z,4.96
2018-12-29T13:16:00.771Z,4.96
2018-12-29T13:17:00.924Z,4.97
2018-12-29T13:18:01.626Z,4.97
2018-12-29T13:19:00.834Z,4.97
2018-12-29T13:20:00.833Z,4.98
2018-12-29T13:21:00.496Z,4.97